Southwick, Idaho
Current Conditions -  °F | °C
As of 1:53 PM on Monday 26 Jan 2015 (Local Time) from KPUW Reporting Station
Clear Clear  
Wind Chill: 58°   Ceiling: Unl
Heat Index: 58°   Visibility: 10mi
Dew Point: 42°   Wind: 14mph
Humidity: 56%   Direction: 150°SSE
Pressure: 30.05"   Gusts: NA
Location:  46.6455°N, 116.545°W
Report Text: KPUW 262153Z AUTO 15012KT 10SM CLR 14/06 A3005 RMK AO2 SLP178 T01440056
Loading
Personal Weather Stations






























Interactive Weather Map New forecast layout! Learn more

10-Day Weather Forecast

Advertisements
Track Severe Weather on mobile